Letzte 24h
Datum & Zeit Temp. Luft-
feuchte
Wind Nieder-
schlag
Luftdruck Tendenz
IN OUT IN OUT Richtung Min. Max.
2018.05.21 02:57 17.7 °C 12.8 °C 52% 85% W 276 ° 2 km/h 6 km/h 0.0 mm 1027.20 hPa langsam fallend
03:57 17.3 °C 11.2 °C 52% 89% W 270 ° 1 km/h 4 km/h 0.0 mm 1027.00 hPa langsam fallend
04:57 16.8 °C 10.3 °C 54% 93% O 90 ° 0 km/h 3 km/h 0.0 mm 1027.00 hPa langsam fallend
05:57 16.4 °C 12.0 °C 54% 90% W 277 ° 1 km/h 7 km/h 0.0 mm 1027.10 hPa gleichbleibend
06:57 16.5 °C 13.5 °C 57% 82% NW 309 ° 4 km/h 9 km/h 0.0 mm 1027.10 hPa langsam steigend
07:57 17.4 °C 15.6 °C 58% 76% WNW 303 ° 4 km/h 7 km/h 0.0 mm 1027.00 hPa gleichbleibend
08:57 19.0 °C 18.3 °C 58% 64% N 358 ° 3 km/h 12 km/h 0.0 mm 1026.50 hPa langsam fallend
09:57 20.7 °C 18.9 °C 56% 58% O 86 ° 12 km/h 22 km/h 0.0 mm 1026.40 hPa langsam fallend
10:57 22.0 °C 20.4 °C 53% 52% O 91 ° 13 km/h 26 km/h 0.0 mm 1026.20 hPa langsam fallend
11:57 23.6 °C 20.9 °C 51% 51% O 97 ° 10 km/h 19 km/h 0.0 mm 1026.10 hPa langsam fallend
12:57 24.1 °C 21.3 °C 43% 51% ONO 72 ° 13 km/h 24 km/h 0.0 mm 1025.50 hPa langsam fallend
13:57 23.7 °C 21.9 °C 43% 46% ONO 75 ° 15 km/h 23 km/h 0.0 mm 1025.40 hPa langsam fallend
14:57 24.3 °C 21.5 °C 43% 48% O 88 ° 10 km/h 21 km/h 0.0 mm 1025.00 hPa langsam fallend
15:57 24.1 °C 20.2 °C 45% 56% O 98 ° 2 km/h 15 km/h 0.0 mm 1024.50 hPa langsam fallend
16:57 23.5 °C 19.8 °C 48% 60% SO 138 ° 2 km/h 5 km/h 0.0 mm 1024.00 hPa langsam fallend
17:57 23.1 °C 21.1 °C 48% 54% OSO 105 ° 2 km/h 7 km/h 0.0 mm 1023.10 hPa fallend
18:57 23.3 °C 22.0 °C 48% 51% O 79 ° 4 km/h 7 km/h 0.0 mm 1023.00 hPa langsam fallend
19:57 23.3 °C 20.9 °C 48% 54% O 91 ° 4 km/h 15 km/h 0.0 mm 1022.90 hPa langsam fallend
20:57 22.4 °C 17.3 °C 49% 68% ONO 75 ° 0 km/h 5 km/h 0.0 mm 1022.90 hPa langsam fallend
21:57 21.5 °C 16.1 °C 50% 75% OSO 117 ° 1 km/h 4 km/h 0.0 mm 1023.00 hPa gleichbleibend
22:57 20.6 °C 15.7 °C 51% 77% OSO 105 ° 2 km/h 6 km/h 0.0 mm 1022.70 hPa langsam fallend
23:57 20.1 °C 16.0 °C 52% 74% SSO 158 ° 1 km/h 6 km/h 0.0 mm 1022.40 hPa langsam fallend
2018.05.22 00:57 19.6 °C 15.8 °C 53% 74% SO 131 ° 1 km/h 5 km/h 0.0 mm 1021.80 hPa langsam fallend
01:57 19.0 °C 16.2 °C 53% 70% OSO 115 ° 4 km/h 10 km/h 0.0 mm 1021.30 hPa langsam fallend

 

Verlauf: letzte 24h
WIND   Windrose
(Klicke ins Bild, um den Hintergrund abzuschalten)
WIND   Windverkauf 2.5h
TEMP   Temperatur 2.5h
Druck   Luftdruck 2.5h
Regen   Luftdruck 2.5h